Date,TemperatureHighF,TemperatureAvgF,TemperatureLowF,DewpointHighF,DewpointAvgF,DewpointLowF,HumidityHigh,HumidityAvg,HumidityLow,PressureMaxIn,PressureMinIn,WindSpeedMaxMPH,WindSpeedAvgMPH,GustSpeedMaxMPH,PrecipitationSumIn
2013-9-2,70.9,61.2,60.1,41.1,4.5,3.4,34,1,1,29.04,28.98,22,0,22,0.24
2013-9-3,68.9,66.6,61.4,52.6,44.6,4.4,56,48,1,29.12,29.04,10,2,10,0.00
2013-9-4,75.6,70.7,63.9,56.7,50.2,24.0,56,49,23,29.24,29.11,10,2,10,0.00
2013-9-5,65.9,62.3,57.6,46.7,36.6,1.4,58,42,1,29.36,29.21,8,2,9,0.00
2013-9-6,67.1,64.8,61.6,45.9,43.1,40.0,49,45,42,29.52,29.35,9,2,9,0.02
2013-9-8,64.8,49.9,47.2,45.2,34.6,30.6,60,56,49,29.43,29.39,2,0,2,0.02
2013-9-9,66.8,54.7,45.9,49.4,35.2,8.5,57,48,21,29.51,29.41,5,1,5,0.00
2013-9-10,81.2,75.6,60.1,48.6,19.3,3.4,52,8,1,29.43,29.25,4,1,5,0.78
2013-9-11,89.8,85.2,74.3,70.0,52.5,14.3,53,36,1,29.34,29.21,9,2,11,0.00
2013-9-12,78.8,70.8,64.6,55.0,20.1,6.9,44,11,1,29.07,28.98,5,1,5,0.01
2013-9-13,60.5,57.0,52.2,42.8,33.3,2.1,53,42,3,29.19,29.04,4,2,4,0.00
2013-9-16,59.0,53.3,44.1,43.6,34.8,5.0,60,52,12,29.63,29.41,6,2,6,0.01
2013-9-17,58.9,45.8,43.2,42.2,26.4,23.2,54,46,45,29.70,29.64,2,0,2,0.00
2013-9-20,65.5,61.4,59.8,48.4,35.4,22.4,54,39,22,29.21,29.20,4,1,4,0.00
2013-9-21,75.6,63.9,54.4,57.2,27.4,-1.1,56,28,1,29.21,28.90,5,1,5,0.01
2013-9-22,59.4,55.9,51.5,40.7,16.3,-0.7,59,24,1,29.17,28.92,10,3,10,0.00
2013-9-23,48.6,46.1,43.2,34.9,25.1,1.9,59,47,18,29.36,29.33,3,2,3,0.00
2013-9-24,61.2,56.0,50.0,43.4,40.0,35.4,57,55,52,29.33,29.24,8,3,8,0.00
2013-9-28,69.5,58.1,51.5,51.1,33.3,1.2,57,42,13,29.53,29.53,1,0,1,0.00
2013-9-29,72.5,70.4,66.6,54.4,52.7,50.0,55,54,53,29.37,29.33,4,2,4,0.00